KLAW

Lawton-Fort Sill Regional Airport

Lawton, Oklahoma, USA
METAR KLAW 181953Z 15004KT 7SM OVC004 08/07 A3011 RMK AO2 SLP200 T00830072
Observed Flight Rules
Dec-18 @ 19:53 UTC (19 minutes ago) Instrument Flight Rules
Wind Visibility Clouds
150° at 4 knots 7 miles
  • Overcast at 400' AGL
Temperatures Readings
Current 8°C / 46°F
Dewpoint 7°C / 45°F
Humidity 93%
Altimeter 30.11" Hg
Pressure 1020 hPa
Elevation 337
METAR KLAW 181953Z 15004KT 7SM OVC004 08/07 A3011 RMK AO2 SLP200 T00830072
Observed Flight Rules
Dec-18 @ 19:53 UTC
(19 minutes ago)
LIFR
Wind Visibility
150° at 4 knots 7 miles
Clouds
  • Overcast at 400' AGL
Temperature Dewpoint
8°C / 46°F 7°C / 45°F
Humidity Altimeter Pressure
93% 30.11" Hg 1020 hPa